createdAt,value
2023-04-11T00:02:14.837Z,80.00
2023-04-11T00:04:42.894Z,82.12
2023-04-11T00:07:10.797Z,82.58
2023-04-11T00:09:41.484Z,83.65
2023-04-11T00:12:10.703Z,83.23
2023-04-11T00:14:38.486Z,83.95
2023-04-11T00:17:06.209Z,83.98
2023-04-11T00:19:34.454Z,83.11
2023-04-11T00:22:02.921Z,82.18
2023-04-11T00:24:30.580Z,82.31
2023-04-11T00:26:58.426Z,84.03
2023-04-11T00:29:27.471Z,83.31
2023-04-11T00:31:56.821Z,82.60
2023-04-11T00:34:24.541Z,82.46
2023-04-11T00:36:52.861Z,83.49
2023-04-11T00:39:21.250Z,84.52
2023-04-11T00:41:48.957Z,84.22
2023-04-11T00:44:16.758Z,84.81
2023-04-11T00:46:46.531Z,83.84
2023-04-11T00:49:14.132Z,84.28
2023-04-11T00:51:42.078Z,84.52
2023-04-11T00:54:10.420Z,84.14
2023-04-11T00:56:38.189Z,84.68
2023-04-11T00:59:06.484Z,84.22
2023-04-11T01:01:36.336Z,83.80
2023-04-11T01:04:06.339Z,82.82
2023-04-11T01:06:34.355Z,82.14
2023-04-11T01:09:01.998Z,83.49
2023-04-11T01:11:29.634Z,81.78
2023-04-11T01:13:57.246Z,81.77
2023-04-11T01:16:25.116Z,81.14
2023-04-11T01:18:52.990Z,80.93
2023-04-11T01:21:22.351Z,81.64
2023-04-11T01:23:52.851Z,82.49
2023-04-11T01:26:20.838Z,82.15
2023-04-11T01:28:48.534Z,82.52
2023-04-11T01:31:16.334Z,82.07
2023-04-11T01:33:44.280Z,82.34
2023-04-11T01:36:12.026Z,82.17
2023-04-11T01:38:39.845Z,82.64
2023-04-11T01:41:08.968Z,82.65
2023-04-11T01:43:36.570Z,83.30
2023-04-11T01:46:04.259Z,84.04
2023-04-11T01:48:34.665Z,84.92
2023-04-11T01:51:02.505Z,86.66
2023-04-11T01:53:30.140Z,87.57
2023-04-11T01:55:57.756Z,87.61
2023-04-11T01:58:26.793Z,87.51
2023-04-11T02:00:55.326Z,87.75
2023-04-11T02:03:23.852Z,87.07
2023-04-11T02:05:51.675Z,88.52
2023-04-11T02:08:19.409Z,89.35
2023-04-11T02:10:48.702Z,89.39
2023-04-11T02:13:16.284Z,90.90
2023-04-11T02:15:45.447Z,93.33
2023-04-11T02:18:13.183Z,98.68
2023-04-11T02:20:43.373Z,100.00
2023-04-11T02:23:11.068Z,100.00
2023-04-11T02:25:40.513Z,100.00
2023-04-11T02:28:08.614Z,100.00
2023-04-11T02:30:36.395Z,100.00
2023-04-11T02:33:05.647Z,100.00
2023-04-11T02:35:34.033Z,100.00
2023-04-11T02:38:01.712Z,100.00
2023-04-11T02:40:31.138Z,100.00
2023-04-11T02:43:01.182Z,100.00
2023-04-11T02:45:29.607Z,100.00
2023-04-11T02:47:58.430Z,100.00
2023-04-11T02:50:27.686Z,100.00
2023-04-11T02:52:56.110Z,100.00
2023-04-11T02:55:27.484Z,100.00
2023-04-11T02:57:55.570Z,100.00
2023-04-11T03:00:23.456Z,100.00
2023-04-11T03:02:59.104Z,100.00
2023-04-11T03:05:29.229Z,100.00
2023-04-11T03:07:57.812Z,100.00
2023-04-11T03:10:27.550Z,100.00
2023-04-11T03:12:56.122Z,100.00
2023-04-11T03:15:23.827Z,100.00
2023-04-11T03:17:51.506Z,100.00
2023-04-11T03:20:20.325Z,100.00
2023-04-11T03:22:53.710Z,100.00
2023-04-11T03:25:24.915Z,100.00
2023-04-11T03:27:53.610Z,100.00
2023-04-11T03:30:21.471Z,100.00
2023-04-11T03:32:49.203Z,100.00
2023-04-11T03:35:18.779Z,100.00
2023-04-11T03:37:48.154Z,100.00
2023-04-11T03:40:18.808Z,100.00
2023-04-11T03:42:52.144Z,100.00
2023-04-11T03:45:24.087Z,100.00
2023-04-11T03:47:54.571Z,100.00
2023-04-11T03:50:26.245Z,100.00
2023-04-11T03:52:58.940Z,100.00
2023-04-11T03:55:28.188Z,100.00
2023-04-11T03:57:57.717Z,100.00
2023-04-11T04:00:26.795Z,100.00
2023-04-11T04:03:07.196Z,100.00
2023-04-11T04:05:36.524Z,100.00
2023-04-11T04:08:04.819Z,100.00
2023-04-11T04:10:51.082Z,100.00
2023-04-11T04:13:19.117Z,100.00
2023-04-11T04:16:03.470Z,100.00
2023-04-11T04:18:31.690Z,100.00
2023-04-11T04:21:01.169Z,100.00
2023-04-11T04:23:30.065Z,100.00
2023-04-11T04:26:16.116Z,100.00
2023-04-11T04:28:49.069Z,100.00
2023-04-11T04:31:33.849Z,100.00
2023-04-11T04:34:08.879Z,100.00
2023-04-11T04:36:48.691Z,100.00
2023-04-11T04:39:25.474Z,100.00
2023-04-11T04:41:59.117Z,100.00
2023-04-11T04:44:34.141Z,100.00
2023-04-11T04:47:06.442Z,100.00
2023-04-11T04:49:34.190Z,100.00
2023-04-11T04:52:01.993Z,100.00
2023-04-11T04:54:31.374Z,100.00
2023-04-11T04:57:01.326Z,100.00
2023-04-11T04:59:29.380Z,100.00
2023-04-11T05:02:04.194Z,100.00
2023-04-11T05:04:34.173Z,100.00
2023-04-11T05:07:02.074Z,100.00
2023-04-11T05:09:31.579Z,100.00
2023-04-11T05:12:11.291Z,100.00
2023-04-11T05:14:41.213Z,100.00
2023-04-11T05:17:08.916Z,100.00
2023-04-11T05:19:36.645Z,100.00
2023-04-11T05:22:04.453Z,100.00
2023-04-11T05:24:37.231Z,100.00
2023-04-11T05:27:08.388Z,100.00
2023-04-11T05:29:37.664Z,100.00
2023-04-11T05:32:05.864Z,100.00
2023-04-11T05:34:34.396Z,100.00
2023-04-11T05:37:02.490Z,100.00
2023-04-11T05:39:30.233Z,100.00
2023-04-11T05:41:58.137Z,100.00
2023-04-11T05:44:25.867Z,100.00
2023-04-11T05:46:54.939Z,100.00
2023-04-11T05:49:22.686Z,100.00
2023-04-11T05:51:53.260Z,100.00
2023-04-11T05:54:31.697Z,100.00
2023-04-11T05:57:01.222Z,100.00
2023-04-11T05:59:30.727Z,100.00
2023-04-11T06:01:59.791Z,100.00
2023-04-11T06:04:27.791Z,100.00
2023-04-11T06:06:55.639Z,100.00
2023-04-11T06:09:23.369Z,100.00
2023-04-11T06:11:53.400Z,100.00
2023-04-11T06:14:21.057Z,100.00
2023-04-11T06:16:48.806Z,100.00
2023-04-11T06:19:17.930Z,100.00
2023-04-11T06:21:45.819Z,100.00
2023-04-11T06:24:13.484Z,100.00
2023-04-11T06:26:41.315Z,100.00
2023-04-11T06:29:09.023Z,100.00
2023-04-11T06:31:36.710Z,100.00
2023-04-11T06:34:04.421Z,100.00
2023-04-11T06:36:33.546Z,100.00
2023-04-11T06:39:01.455Z,100.00
2023-04-11T06:41:29.109Z,100.00
2023-04-11T06:43:59.895Z,100.00
2023-04-11T06:46:27.622Z,100.00
2023-04-11T06:48:55.912Z,100.00
2023-04-11T06:51:23.528Z,100.00
2023-04-11T06:53:52.505Z,100.00
2023-04-11T06:56:20.142Z,100.00
2023-04-11T06:58:47.817Z,100.00
2023-04-11T07:01:15.996Z,100.00
2023-04-11T07:03:44.161Z,100.00
2023-04-11T07:06:12.027Z,100.00
2023-04-11T07:08:39.729Z,100.00
2023-04-11T07:11:08.959Z,100.00
2023-04-11T07:13:36.705Z,100.00
2023-04-11T07:16:04.507Z,100.00
2023-04-11T07:18:32.357Z,100.00
2023-04-11T07:21:00.038Z,100.00
2023-04-11T07:23:27.742Z,100.00
2023-04-11T07:25:55.723Z,100.00
2023-04-11T07:28:25.176Z,100.00
2023-04-11T07:30:52.970Z,100.00
2023-04-11T07:33:21.449Z,100.00
2023-04-11T07:35:49.210Z,100.00
2023-04-11T07:38:29.658Z,100.00
2023-04-11T07:40:57.489Z,100.00
2023-04-11T07:43:26.894Z,100.00
2023-04-11T07:45:54.723Z,100.00
2023-04-11T07:48:22.992Z,100.00
2023-04-11T07:50:50.659Z,100.00
2023-04-11T07:53:18.373Z,100.00
2023-04-11T07:55:46.166Z,100.00
2023-04-11T07:58:13.831Z,100.00
2023-04-11T08:00:43.104Z,100.00
2023-04-11T08:03:11.395Z,100.00
2023-04-11T08:05:39.247Z,100.00
2023-04-11T08:08:07.036Z,100.00
2023-04-11T08:10:34.652Z,100.00
2023-04-11T08:13:02.272Z,100.00
2023-04-11T08:15:29.901Z,100.00
2023-04-11T08:17:59.814Z,100.00
2023-04-11T08:20:27.476Z,100.00
2023-04-11T08:22:55.522Z,100.00
2023-04-11T08:25:23.700Z,100.00
2023-04-11T08:27:52.936Z,100.00
2023-04-11T08:30:21.427Z,100.00
2023-04-11T08:32:49.195Z,100.00
2023-04-11T08:35:18.338Z,100.00
2023-04-11T08:37:46.057Z,100.00
2023-04-11T08:40:13.929Z,100.00
2023-04-11T08:42:44.012Z,100.00
2023-04-11T08:45:12.191Z,100.00
2023-04-11T08:47:40.087Z,100.00
2023-04-11T08:50:08.853Z,100.00
2023-04-11T08:52:37.947Z,100.00
2023-04-11T08:55:06.066Z,100.00
2023-04-11T08:57:34.841Z,100.00
2023-04-11T09:00:10.817Z,100.00
2023-04-11T09:02:44.057Z,100.00
2023-04-11T09:05:16.767Z,100.00
2023-04-11T09:07:50.710Z,100.00
2023-04-11T09:10:21.808Z,100.00
2023-04-11T09:12:49.435Z,100.00
2023-04-11T09:15:20.947Z,100.00
2023-04-11T09:17:49.862Z,100.00
2023-04-11T09:20:20.504Z,100.00
2023-04-11T09:22:50.864Z,100.00
2023-04-11T09:25:18.705Z,100.00
2023-04-11T09:27:46.426Z,100.00
2023-04-11T09:30:22.665Z,100.00
2023-04-11T09:32:53.260Z,100.00
2023-04-11T09:35:22.899Z,100.00
2023-04-11T09:37:53.644Z,100.00
2023-04-11T09:40:21.717Z,100.00
2023-04-11T09:42:49.762Z,100.00
2023-04-11T09:45:20.464Z,100.00
2023-04-11T09:47:48.430Z,100.00
2023-04-11T09:50:16.217Z,100.00
2023-04-11T09:52:44.463Z,100.00
2023-04-11T09:55:14.618Z,100.00
2023-04-11T09:57:45.851Z,100.00
2023-04-11T10:00:16.926Z,100.00
2023-04-11T10:02:46.013Z,100.00
2023-04-11T10:05:14.128Z,100.00
2023-04-11T10:07:53.830Z,100.00
2023-04-11T10:10:23.148Z,100.00
2023-04-11T10:12:50.908Z,100.00
2023-04-11T10:15:18.560Z,100.00
2023-04-11T10:18:01.871Z,100.00
2023-04-11T10:20:43.759Z,100.00
2023-04-11T10:23:11.452Z,100.00
2023-04-11T10:25:56.403Z,100.00
2023-04-11T10:28:34.104Z,100.00
2023-04-11T10:31:05.885Z,100.00
2023-04-11T10:33:33.827Z,99.67
2023-04-11T10:36:03.231Z,93.95
2023-04-11T10:38:49.619Z,88.39
2023-04-11T10:41:32.700Z,86.65
2023-04-11T10:44:16.086Z,88.59
2023-04-11T10:46:47.571Z,86.79
2023-04-11T10:49:17.695Z,78.39
2023-04-11T10:51:45.356Z,77.64
2023-04-11T10:54:25.287Z,73.14
2023-04-11T10:56:57.785Z,77.21
2023-04-11T10:59:44.160Z,77.77
2023-04-11T11:02:11.894Z,77.66
2023-04-11T11:04:40.203Z,75.40
2023-04-11T11:07:08.363Z,73.05
2023-04-11T11:09:36.297Z,71.20
2023-04-11T11:12:09.005Z,73.45
2023-04-11T11:14:36.810Z,80.73
2023-04-11T11:17:04.536Z,86.17
2023-04-11T11:19:32.380Z,91.87
2023-04-11T11:22:03.883Z,99.15
2023-04-11T11:24:31.708Z,100.00
2023-04-11T11:26:59.571Z,100.00
2023-04-11T11:29:35.706Z,100.00
2023-04-11T11:32:04.018Z,100.00
2023-04-11T11:34:32.382Z,100.00
2023-04-11T11:37:01.509Z,100.00
2023-04-11T11:39:29.555Z,100.00
2023-04-11T11:41:57.849Z,100.00
2023-04-11T11:44:26.128Z,100.00
2023-04-11T11:47:12.863Z,100.00
2023-04-11T11:49:48.597Z,100.00
2023-04-11T11:52:31.695Z,100.00
2023-04-11T11:54:59.731Z,100.00
2023-04-11T11:57:27.572Z,100.00
2023-04-11T11:59:56.203Z,100.00
2023-04-11T12:02:24.126Z,100.00
2023-04-11T12:04:53.500Z,100.00
2023-04-11T12:07:21.919Z,100.00
2023-04-11T12:09:49.584Z,100.00
2023-04-11T12:12:17.437Z,100.00
2023-04-11T12:14:53.043Z,100.00
2023-04-11T12:17:20.886Z,100.00
2023-04-11T12:19:48.644Z,100.00
2023-04-11T12:22:17.849Z,100.00
2023-04-11T12:24:45.840Z,100.00
2023-04-11T12:27:13.575Z,100.00
2023-04-11T12:29:41.283Z,100.00
2023-04-11T12:32:08.943Z,100.00
2023-04-11T12:34:36.576Z,100.00
2023-04-11T12:37:04.308Z,100.00
2023-04-11T12:39:33.793Z,100.00
2023-04-11T12:42:01.402Z,100.00
2023-04-11T12:44:29.097Z,100.00
2023-04-11T12:46:57.040Z,100.00
2023-04-11T12:49:24.735Z,100.00
2023-04-11T12:51:52.448Z,100.00
2023-04-11T12:54:20.154Z,100.00
2023-04-11T12:56:49.121Z,100.00
2023-04-11T12:59:16.911Z,100.00
2023-04-11T13:01:44.689Z,100.00
2023-04-11T13:04:12.676Z,100.00
2023-04-11T13:06:41.025Z,100.00
2023-04-11T13:09:08.643Z,100.00
2023-04-11T13:11:36.603Z,100.00
2023-04-11T13:14:05.644Z,100.00
2023-04-11T13:16:34.051Z,100.00
2023-04-11T13:19:01.983Z,100.00
2023-04-11T13:21:29.701Z,100.00
2023-04-11T13:23:57.762Z,100.00
2023-04-11T13:26:25.522Z,100.00
2023-04-11T13:28:53.268Z,100.00
2023-04-11T13:31:26.378Z,100.00
2023-04-11T13:33:54.328Z,100.00
2023-04-11T13:36:22.047Z,100.00
2023-04-11T13:38:50.163Z,100.00
2023-04-11T13:41:17.921Z,100.00
2023-04-11T13:43:45.758Z,100.00
2023-04-11T13:46:14.139Z,100.00
2023-04-11T13:48:43.367Z,100.00
2023-04-11T13:51:11.311Z,100.00
2023-04-11T13:53:38.984Z,100.00
2023-04-11T13:56:08.038Z,100.00
2023-04-11T13:58:35.778Z,100.00
2023-04-11T14:01:03.491Z,100.00
2023-04-11T14:03:33.728Z,100.00
2023-04-11T14:06:03.502Z,100.00
2023-04-11T14:08:31.246Z,100.00
2023-04-11T14:10:58.935Z,100.00
2023-04-11T14:13:26.689Z,100.00
2023-04-11T14:16:07.931Z,100.00
2023-04-11T14:18:36.155Z,100.00
2023-04-11T14:21:05.786Z,100.00
2023-04-11T14:23:33.526Z,100.00
2023-04-11T14:26:01.284Z,100.00
2023-04-11T14:28:28.881Z,100.00
2023-04-11T14:30:57.039Z,100.00
2023-04-11T14:33:24.838Z,100.00
2023-04-11T14:35:52.828Z,100.00
2023-04-11T14:38:24.947Z,100.00
2023-04-11T14:40:52.951Z,100.00
2023-04-11T14:43:20.680Z,100.00
2023-04-11T14:45:48.677Z,100.00
2023-04-11T14:48:16.403Z,100.00
2023-04-11T14:50:44.153Z,100.00
2023-04-11T14:53:12.631Z,100.00
2023-04-11T14:55:42.841Z,100.00
2023-04-11T14:58:11.833Z,100.00
2023-04-11T15:00:40.480Z,100.00
2023-04-11T15:03:08.471Z,100.00
2023-04-11T15:05:36.640Z,100.00
2023-04-11T15:08:04.376Z,100.00
2023-04-11T15:10:32.030Z,100.00
2023-04-11T15:13:01.304Z,100.00
2023-04-11T15:15:29.000Z,100.00
2023-04-11T15:18:11.610Z,100.00
2023-04-11T15:20:39.541Z,100.00
2023-04-11T15:23:07.254Z,100.00
2023-04-11T15:25:37.153Z,100.00
2023-04-11T15:28:06.386Z,100.00
2023-04-11T15:30:34.140Z,100.00
2023-04-11T15:33:01.880Z,100.00
2023-04-11T15:35:29.579Z,100.00
2023-04-11T15:37:57.468Z,100.00
2023-04-11T15:40:25.119Z,100.00
2023-04-11T15:42:52.808Z,100.00
2023-04-11T15:45:21.856Z,100.00
2023-04-11T15:47:49.491Z,100.00
2023-04-11T15:50:17.537Z,100.00
2023-04-11T15:52:47.726Z,100.00
2023-04-11T15:55:15.435Z,100.00
2023-04-11T15:57:43.192Z,100.00
2023-04-11T16:00:11.626Z,100.00
2023-04-11T16:02:40.833Z,100.00
2023-04-11T16:05:08.933Z,100.00
2023-04-11T16:07:37.333Z,100.00
2023-04-11T16:10:05.509Z,100.00
2023-04-11T16:12:33.464Z,100.00
2023-04-11T16:15:01.228Z,100.00
2023-04-11T16:17:29.034Z,100.00
2023-04-11T16:19:58.211Z,100.00
2023-04-11T16:22:26.047Z,100.00
2023-04-11T16:24:54.404Z,100.00
2023-04-11T16:27:22.247Z,100.00
2023-04-11T16:29:50.159Z,100.00
2023-04-11T16:32:18.164Z,100.00
2023-04-11T16:34:45.889Z,100.00
2023-04-11T16:37:14.975Z,100.00
2023-04-11T16:39:42.696Z,100.00
2023-04-11T16:42:10.782Z,100.00
2023-04-11T16:44:38.536Z,100.00
2023-04-11T16:47:06.388Z,100.00
2023-04-11T16:49:34.068Z,100.00
2023-04-11T16:52:02.127Z,100.00
2023-04-11T16:54:31.373Z,100.00
2023-04-11T16:56:59.204Z,100.00
2023-04-11T16:59:28.115Z,100.00
2023-04-11T17:01:56.197Z,100.00
2023-04-11T17:04:23.915Z,100.00
2023-04-11T17:06:51.606Z,100.00
2023-04-11T17:09:19.313Z,100.00
2023-04-11T17:11:48.319Z,100.00
2023-04-11T17:14:16.028Z,100.00
2023-04-11T17:16:46.284Z,100.00
2023-04-11T17:19:13.900Z,100.00
2023-04-11T17:21:41.513Z,100.00
2023-04-11T17:24:09.052Z,100.00
2023-04-11T17:26:36.792Z,100.00
2023-04-11T17:29:06.554Z,100.00
2023-04-11T17:31:34.506Z,100.00
2023-04-11T17:34:02.051Z,100.00
2023-04-11T17:36:30.997Z,100.00
2023-04-11T17:38:58.618Z,100.00
2023-04-11T17:41:26.315Z,100.00
2023-04-11T17:43:55.979Z,100.00
2023-04-11T17:46:25.172Z,100.00
2023-04-11T17:48:52.726Z,100.00
2023-04-11T17:51:20.462Z,100.00
2023-04-11T17:53:48.106Z,100.00
2023-04-11T17:56:15.962Z,100.00
2023-04-11T17:58:45.199Z,100.00
2023-04-11T18:01:13.462Z,100.00
2023-04-11T18:03:44.077Z,100.00
2023-04-11T18:06:12.250Z,100.00
2023-04-11T18:08:49.837Z,100.00
2023-04-11T18:11:19.443Z,100.00
2023-04-11T18:13:49.856Z,100.00
2023-04-11T18:16:17.999Z,100.00
2023-04-11T18:18:47.687Z,100.00
2023-04-11T18:21:16.041Z,100.00
2023-04-11T18:23:43.740Z,100.00
2023-04-11T18:26:11.316Z,100.00
2023-04-11T18:28:39.005Z,100.00
2023-04-11T18:31:06.922Z,100.00
2023-04-11T18:33:36.626Z,100.00
2023-04-11T18:36:08.568Z,100.00
2023-04-11T18:38:38.868Z,100.00
2023-04-11T18:41:07.869Z,100.00
2023-04-11T18:43:38.114Z,100.00
2023-04-11T18:46:07.542Z,100.00
2023-04-11T18:48:35.611Z,100.00
2023-04-11T18:51:03.569Z,100.00
2023-04-11T18:53:32.545Z,100.00
2023-04-11T18:56:03.131Z,100.00
2023-04-11T18:58:33.496Z,100.00
2023-04-11T19:01:14.130Z,100.00
2023-04-11T19:03:43.813Z,100.00
2023-04-11T19:06:11.730Z,100.00
2023-04-11T19:08:40.761Z,100.00
2023-04-11T19:11:08.348Z,100.00
2023-04-11T19:13:35.918Z,100.00
2023-04-11T19:16:03.787Z,100.00
2023-04-11T19:18:31.378Z,100.00
2023-04-11T19:20:59.140Z,100.00
2023-04-11T19:23:26.736Z,100.00
2023-04-11T19:25:55.811Z,100.00
2023-04-11T19:28:23.463Z,100.00
2023-04-11T19:30:51.213Z,100.00
2023-04-11T19:33:19.030Z,100.00
2023-04-11T19:35:46.583Z,100.00
2023-04-11T19:38:14.178Z,100.00
2023-04-11T19:40:41.711Z,100.00
2023-04-11T19:43:10.703Z,100.00
2023-04-11T19:45:38.250Z,100.00
2023-04-11T19:48:06.010Z,100.00
2023-04-11T19:50:33.681Z,100.00
2023-04-11T19:53:01.645Z,100.00
2023-04-11T19:55:29.378Z,100.00
2023-04-11T19:57:56.997Z,100.00
2023-04-11T20:00:27.313Z,100.00
2023-04-11T20:02:55.965Z,100.00
2023-04-11T20:05:23.777Z,100.00
2023-04-11T20:07:51.293Z,100.00
2023-04-11T20:10:18.837Z,100.00
2023-04-11T20:12:46.550Z,100.00
2023-04-11T20:15:14.873Z,100.00
2023-04-11T20:17:46.073Z,100.00
2023-04-11T20:20:15.357Z,100.00
2023-04-11T20:22:44.838Z,100.00
2023-04-11T20:25:12.840Z,100.00
2023-04-11T20:27:40.786Z,100.00
2023-04-11T20:30:10.385Z,100.00
2023-04-11T20:32:38.120Z,100.00
2023-04-11T20:35:08.699Z,100.00
2023-04-11T20:37:36.366Z,100.00
2023-04-11T20:40:06.743Z,100.00
2023-04-11T20:42:35.137Z,100.00
2023-04-11T20:45:08.184Z,100.00
2023-04-11T20:47:37.255Z,100.00
2023-04-11T20:50:05.707Z,100.00
2023-04-11T20:52:34.744Z,100.00
2023-04-11T20:55:05.019Z,100.00
2023-04-11T20:57:33.510Z,100.00
2023-04-11T21:00:01.270Z,100.00
2023-04-11T21:02:28.985Z,100.00
2023-04-11T21:04:56.698Z,100.00
2023-04-11T21:07:24.257Z,100.00
2023-04-11T21:09:54.460Z,100.00
2023-04-11T21:12:22.121Z,100.00
2023-04-11T21:14:49.702Z,100.00
2023-04-11T21:17:17.186Z,100.00
2023-04-11T21:19:44.701Z,100.00
2023-04-11T21:22:12.873Z,100.00
2023-04-11T21:24:40.419Z,100.00
2023-04-11T21:27:09.285Z,100.00
2023-04-11T21:29:36.820Z,100.00
2023-04-11T21:32:07.428Z,100.00
2023-04-11T21:34:34.988Z,100.00
2023-04-11T21:37:02.506Z,100.00
2023-04-11T21:39:30.050Z,100.00
2023-04-11T21:41:57.606Z,100.00
2023-04-11T21:44:26.493Z,100.00
2023-04-11T21:46:54.060Z,100.00
2023-04-11T21:49:21.586Z,100.00
2023-04-11T21:51:49.443Z,100.00
2023-04-11T21:54:17.024Z,100.00
2023-04-11T21:56:44.934Z,100.00
2023-04-11T21:59:12.498Z,100.00
2023-04-11T22:01:41.741Z,100.00
2023-04-11T22:04:10.712Z,100.00
2023-04-11T22:06:38.879Z,100.00
2023-04-11T22:09:06.722Z,100.00
2023-04-11T22:11:34.306Z,100.00
2023-04-11T22:14:02.204Z,100.00
2023-04-11T22:16:31.473Z,100.00
2023-04-11T22:19:00.626Z,100.00
2023-04-11T22:21:28.435Z,100.00
2023-04-11T22:23:56.673Z,100.00
2023-04-11T22:26:26.747Z,100.00
2023-04-11T22:28:55.182Z,100.00
2023-04-11T22:31:22.893Z,100.00
2023-04-11T22:33:50.560Z,100.00
2023-04-11T22:36:19.446Z,100.00
2023-04-11T22:38:46.969Z,100.00
2023-04-11T22:41:15.271Z,100.00
2023-04-11T22:43:42.893Z,100.00
2023-04-11T22:46:10.925Z,100.00
2023-04-11T22:48:38.594Z,100.00
2023-04-11T22:51:07.105Z,100.00
2023-04-11T22:53:41.996Z,100.00
2023-04-11T22:56:09.830Z,100.00
2023-04-11T22:58:37.826Z,100.00
2023-04-11T23:01:06.184Z,100.00
2023-04-11T23:03:33.722Z,100.00
2023-04-11T23:06:01.712Z,100.00
2023-04-11T23:08:30.057Z,100.00
2023-04-11T23:10:59.461Z,100.00
2023-04-11T23:13:27.100Z,100.00
2023-04-11T23:15:54.767Z,100.00
2023-04-11T23:18:22.364Z,100.00
2023-04-11T23:20:50.737Z,100.00
2023-04-11T23:23:18.410Z,100.00
2023-04-11T23:25:45.951Z,100.00
2023-04-11T23:28:14.822Z,100.00
2023-04-11T23:30:42.470Z,100.00
2023-04-11T23:33:10.077Z,100.00
2023-04-11T23:35:37.813Z,100.00
2023-04-11T23:38:06.014Z,100.00
2023-04-11T23:40:33.777Z,100.00
2023-04-11T23:43:01.616Z,100.00
2023-04-11T23:45:30.749Z,100.00
2023-04-11T23:47:58.333Z,100.00
2023-04-11T23:50:26.604Z,100.00
2023-04-11T23:52:54.842Z,100.00
2023-04-11T23:55:22.396Z,100.00
2023-04-11T23:57:49.915Z,100.00
